Time;durP1;ratioP1;P1;durP2;ratioP2;P2;SDS_P1;SDS_P2;PMS_P1;PMS_P2;Temp;Humidity;BMP_temperature;BMP_pressure;BME280_temperature;BME280_humidity;BME280_pressure;Samples;Min_cycle;Max_cycle;Signal;HPM_P1;HPM_P2
2024/01/16 00:01:00;;;;;;;;;;;;;;;;;;5024868;28;19969;-81
2024/01/16 00:03:27;;;;;;;;;;;;;;;;;;5039455;28;20020;-81
2024/01/16 00:05:53;;;;;;;;;;;;;;;;;;4962780;28;19926;-80
2024/01/16 00:08:19;;;;;;;;;;;;;;;;;;5043086;28;19975;-82
2024/01/16 00:10:46;;;;;;;;;;;;;;;;;;5040099;28;20355;-82
2024/01/16 00:13:12;;;;;;;;;;;;;;;;;;5032119;28;20401;-80
2024/01/16 00:15:41;;;;;;;;;;;;;;;;;;5038664;28;19927;-80
2024/01/16 00:18:08;;;;;;;;;;;;;;;;;;5035229;28;20463;-83
2024/01/16 00:20:34;;;;;;;;;;;;;;;;;;4967228;28;19926;-81
2024/01/16 00:23:01;;;;;;;;;;;;;;;;;;5041258;28;20000;-79
2024/01/16 00:25:30;;;;;;;;;;;;;;;;;;4960738;28;19933;-81
2024/01/16 00:27:56;;;;;;;;;;;;;;;;;;4961732;28;20021;-81
2024/01/16 00:30:23;;;;;;;;;;;;;;;;;;4967019;28;20041;-80
2024/01/16 00:32:49;;;;;;;;;;;;;;;;;;5039471;28;20058;-83
2024/01/16 00:35:15;;;;;;;;;;;;;;;;;;5040025;28;19935;-80
2024/01/16 00:37:42;;;;;;;;;;;;;;;;;;4961903;28;19933;-82
2024/01/16 00:40:08;;;;;;;;;;;;;;;;;;5029292;28;19934;-82
2024/01/16 00:42:35;;;;;;;;;;;;;;;;;;5038017;28;20024;-80
2024/01/16 00:45:01;;;;;;;;;;;;;;;;;;4963295;28;19978;-81
2024/01/16 00:47:28;;;;;;;;;;;;;;;;;;4967192;28;20358;-81
2024/01/16 00:49:54;;;;;;;;;;;;;;;;;;4963818;28;20013;-79
2024/01/16 00:52:21;;;;;;;;;;;;;;;;;;5037997;28;19934;-81
2024/01/16 00:54:47;;;;;;;;;;;;;;;;;;4966484;28;19933;-79
2024/01/16 00:57:16;;;;;;;;;;;;;;;;;;5039052;28;19936;-81
2024/01/16 00:59:42;;;;;;;;;;;;;;;;;;5037799;28;19933;-81
2024/01/16 01:02:11;;;;;;;;;;;;;;;;;;5032976;28;19975;-80
2024/01/16 01:04:38;;;;;;;;;;;;;;;;;;5034506;28;19937;-82
2024/01/16 01:07:04;;;;;;;;;;;;;;;;;;4962471;28;19926;-82
2024/01/16 01:09:31;;;;;;;;;;;;;;;;;;5040422;28;20033;-83
2024/01/16 01:11:57;;;;;;;;;;;;;;;;;;5038848;28;19926;-81
2024/01/16 01:14:25;;;;;;;;;;;;;;;;;;4956018;28;19938;-79
2024/01/16 01:16:52;;;;;;;;;;;;;;;;;;5030046;28;19938;-81
2024/01/16 01:19:18;;;;;;;;;;;;;;;;;;5036396;28;20338;-81
2024/01/16 01:21:45;;;;;;;;;;;;;;;;;;5032261;28;19934;-81
2024/01/16 01:24:11;;;;;;;;;;;;;;;;;;4972350;28;20359;-82
2024/01/16 01:26:38;;;;;;;;;;;;;;;;;;5040908;28;19930;-77
2024/01/16 01:29:04;;;;;;;;;;;;;;;;;;5024970;28;19932;-82
2024/01/16 01:31:30;;;;;;;;;;;;;;;;;;4967378;28;19926;-80
2024/01/16 01:33:57;;;;;;;;;;;;;;;;;;5036451;28;19988;-83
2024/01/16 01:36:23;;;;;;;;;;;;;;;;;;5028577;28;19926;-83
2024/01/16 01:38:50;;;;;;;;;;;;;;;;;;4968601;28;19937;-81
2024/01/16 01:41:16;;;;;;;;;;;;;;;;;;5029439;28;19937;-82
2024/01/16 01:43:43;;;;;;;;;;;;;;;;;;5022740;28;20635;-80
2024/01/16 01:46:09;;;;;;;;;;;;;;;;;;4963282;28;19997;-80
2024/01/16 01:48:36;;;;;;;;;;;;;;;;;;5035492;28;20461;-81
2024/01/16 01:51:05;;;;;;;;;;;;;;;;;;5034756;28;20021;-82
2024/01/16 01:53:31;;;;;;;;;;;;;;;;;;4967552;28;19926;-82
2024/01/16 01:55:59;;;;;;;;;;;;;;;;;;5036962;28;19973;-82
2024/01/16 01:58:26;;;;;;;;;;;;;;;;;;4968594;28;19949;-81
2024/01/16 02:00:52;;;;;;;;;;;;;;;;;;5037772;28;19926;-85
2024/01/16 02:03:19;;;;;;;;;;;;;;;;;;4954043;29;19973;-82
2024/01/16 02:05:45;;;;;;;;;;;;;;;;;;5028003;28;19988;-81
2024/01/16 02:08:12;;;;;;;;;;;;;;;;;;5036775;28;19926;-81
2024/01/16 02:10:38;;;;;;;;;;;;;;;;;;4957547;28;19933;-81
2024/01/16 02:13:05;;;;;;;;;;;;;;;;;;5038768;28;19930;-79
2024/01/16 02:15:32;;;;;;;;;;;;;;;;;;5038920;28;19933;-81
2024/01/16 02:17:58;;;;;;;;;;;;;;;;;;5037746;28;20021;-81
2024/01/16 02:20:24;;;;;;;;;;;;;;;;;;5038065;28;19937;-81
2024/01/16 02:22:51;;;;;;;;;;;;;;;;;;5037414;28;20279;-79
2024/01/16 02:25:17;;;;;;;;;;;;;;;;;;5035664;28;19941;-79
2024/01/16 02:27:44;;;;;;;;;;;;;;;;;;5037987;28;20053;-81
2024/01/16 02:30:10;;;;;;;;;;;;;;;;;;5037460;28;19931;-80
2024/01/16 02:32:37;;;;;;;;;;;;;;;;;;5037985;28;19936;-81
2024/01/16 02:35:06;;;;;;;;;;;;;;;;;;5038287;28;19949;-80
2024/01/16 02:37:32;;;;;;;;;;;;;;;;;;5036833;28;19934;-81
2024/01/16 02:40:00;;;;;;;;;;;;;;;;;;5036272;28;20422;-79
2024/01/16 02:42:26;;;;;;;;;;;;;;;;;;5034614;28;20610;-79
2024/01/16 02:44:53;;;;;;;;;;;;;;;;;;5036757;28;19972;-81
2024/01/16 02:47:19;;;;;;;;;;;;;;;;;;4968209;28;19933;-80
2024/01/16 02:49:46;;;;;;;;;;;;;;;;;;5037604;28;19927;-81
2024/01/16 02:52:13;;;;;;;;;;;;;;;;;;5032016;28;19933;-80
2024/01/16 02:54:39;;;;;;;;;;;;;;;;;;5029120;28;19926;-80
2024/01/16 02:57:06;;;;;;;;;;;;;;;;;;4961888;28;20029;-83
2024/01/16 02:59:32;;;;;;;;;;;;;;;;;;5032574;28;20406;-81
2024/01/16 03:01:58;;;;;;;;;;;;;;;;;;5039826;28;19949;-81
2024/01/16 03:04:27;;;;;;;;;;;;;;;;;;5033644;28;19936;-81
2024/01/16 03:06:54;;;;;;;;;;;;;;;;;;4966698;28;19926;-82
2024/01/16 03:09:20;;;;;;;;;;;;;;;;;;4960770;28;19930;-81
2024/01/16 03:11:47;;;;;;;;;;;;;;;;;;5035892;28;20036;-82
2024/01/16 03:14:13;;;;;;;;;;;;;;;;;;5033447;28;20289;-81
2024/01/16 03:16:40;;;;;;;;;;;;;;;;;;4960453;28;19926;-79
2024/01/16 03:19:07;;;;;;;;;;;;;;;;;;5039779;28;19934;-78
2024/01/16 03:21:33;;;;;;;;;;;;;;;;;;5035399;28;19964;-80
2024/01/16 03:23:59;;;;;;;;;;;;;;;;;;5025296;28;20429;-80
2024/01/16 03:26:26;;;;;;;;;;;;;;;;;;5038260;28;19926;-80
2024/01/16 03:28:52;;;;;;;;;;;;;;;;;;4962125;28;19930;-81
2024/01/16 03:31:21;;;;;;;;;;;;;;;;;;4960479;28;20390;-81
2024/01/16 03:33:47;;;;;;;;;;;;;;;;;;5025199;28;20051;-81
2024/01/16 03:36:15;;;;;;;;;;;;;;;;;;5027468;28;19926;-81
2024/01/16 03:38:41;;;;;;;;;;;;;;;;;;4955909;28;20029;-79
2024/01/16 03:41:08;;;;;;;;;;;;;;;;;;5029247;28;20320;-83
2024/01/16 03:43:34;;;;;;;;;;;;;;;;;;5035279;28;20287;-80
2024/01/16 03:46:01;;;;;;;;;;;;;;;;;;5031081;28;20366;-82
2024/01/16 03:48:27;;;;;;;;;;;;;;;;;;5037965;28;19980;-81
2024/01/16 03:50:54;;;;;;;;;;;;;;;;;;5026273;28;19945;-81
2024/01/16 03:53:21;;;;;;;;;;;;;;;;;;5035379;28;20329;-79
2024/01/16 03:55:47;;;;;;;;;;;;;;;;;;5024777;28;20028;-80
2024/01/16 03:58:13;;;;;;;;;;;;;;;;;;4964605;28;20021;-79
2024/01/16 04:00:40;;;;;;;;;;;;;;;;;;5035262;28;19927;-80
2024/01/16 04:03:07;;;;;;;;;;;;;;;;;;5033928;28;19933;-81
2024/01/16 04:05:33;;;;;;;;;;;;;;;;;;5022735;28;19962;-76
2024/01/16 04:08:00;;;;;;;;;;;;;;;;;;5015323;28;19933;-80
2024/01/16 04:10:26;;;;;;;;;;;;;;;;;;5026177;28;20025;-83
2024/01/16 04:12:52;;;;;;;;;;;;;;;;;;5036763;28;19930;-82
2024/01/16 04:15:19;;;;;;;;;;;;;;;;;;4960975;28;19937;-80
2024/01/16 04:17:48;;;;;;;;;;;;;;;;;;5038716;28;19980;-81
2024/01/16 04:20:15;;;;;;;;;;;;;;;;;;4961891;28;19927;-82
2024/01/16 04:22:41;;;;;;;;;;;;;;;;;;4959151;28;19926;-79
2024/01/16 04:25:08;;;;;;;;;;;;;;;;;;5034350;28;20300;-79
2024/01/16 04:27:34;;;;;;;;;;;;;;;;;;5024213;28;20291;-83
2024/01/16 04:30:00;;;;;;;;;;;;;;;;;;5007900;28;19953;-84
2024/01/16 04:32:27;;;;;;;;;;;;;;;;;;5038724;28;19930;-80
2024/01/16 04:34:53;;;;;;;;;;;;;;;;;;4961833;28;19927;-80
2024/01/16 04:37:20;;;;;;;;;;;;;;;;;;4967483;28;19930;-81
2024/01/16 04:39:46;;;;;;;;;;;;;;;;;;5034993;28;20017;-81
2024/01/16 04:42:12;;;;;;;;;;;;;;;;;;4959554;28;19976;-83
2024/01/16 04:44:39;;;;;;;;;;;;;;;;;;5026472;28;20036;-82
2024/01/16 04:47:06;;;;;;;;;;;;;;;;;;4959055;28;19934;-83
2024/01/16 04:49:32;;;;;;;;;;;;;;;;;;5039874;28;19926;-82
2024/01/16 04:51:59;;;;;;;;;;;;;;;;;;5041023;28;19930;-84
2024/01/16 04:54:25;;;;;;;;;;;;;;;;;;4959003;28;19927;-81
2024/01/16 04:56:52;;;;;;;;;;;;;;;;;;5039289;28;20406;-83
2024/01/16 04:59:18;;;;;;;;;;;;;;;;;;5039948;28;19930;-82
2024/01/16 05:01:44;;;;;;;;;;;;;;;;;;5037791;28;19973;-81
2024/01/16 05:04:11;;;;;;;;;;;;;;;;;;5032855;28;20029;-82
2024/01/16 05:06:38;;;;;;;;;;;;;;;;;;4970292;28;19933;-83
2024/01/16 05:09:05;;;;;;;;;;;;;;;;;;4966155;28;19933;-79
2024/01/16 05:11:31;;;;;;;;;;;;;;;;;;5035981;28;20440;-80
2024/01/16 05:13:58;;;;;;;;;;;;;;;;;;5035284;28;19926;-81
2024/01/16 05:16:24;;;;;;;;;;;;;;;;;;5040546;28;19975;-82
2024/01/16 05:18:51;;;;;;;;;;;;;;;;;;4967342;28;19934;-83
2024/01/16 05:21:17;;;;;;;;;;;;;;;;;;5021185;28;20438;-81
2024/01/16 05:23:44;;;;;;;;;;;;;;;;;;5039825;28;19927;-82
2024/01/16 05:26:10;;;;;;;;;;;;;;;;;;4960268;29;19930;-79
2024/01/16 05:28:37;;;;;;;;;;;;;;;;;;5041327;28;19953;-82
2024/01/16 05:31:03;;;;;;;;;;;;;;;;;;4966456;28;19969;-83
2024/01/16 05:33:30;;;;;;;;;;;;;;;;;;5041459;28;19933;-83
2024/01/16 05:35:56;;;;;;;;;;;;;;;;;;5038082;28;19938;-85
2024/01/16 05:38:23;;;;;;;;;;;;;;;;;;5043576;28;20387;-84
2024/01/16 05:40:49;;;;;;;;;;;;;;;;;;5031479;28;19926;-84
2024/01/16 05:43:16;;;;;;;;;;;;;;;;;;4964138;28;19980;-84
2024/01/16 05:45:42;;;;;;;;;;;;;;;;;;4962318;28;20032;-82
2024/01/16 05:48:09;;;;;;;;;;;;;;;;;;5049234;28;19965;-83
2024/01/16 05:50:35;;;;;;;;;;;;;;;;;;5026267;28;20440;-83
2024/01/16 05:53:02;;;;;;;;;;;;;;;;;;4965600;28;19926;-82
2024/01/16 05:55:31;;;;;;;;;;;;;;;;;;5035958;28;19949;-82
2024/01/16 05:57:59;;;;;;;;;;;;;;;;;;5041594;28;19927;-85
2024/01/16 06:00:25;;;;;;;;;;;;;;;;;;5036172;28;19956;-86
2024/01/16 06:02:52;;;;;;;;;;;;;;;;;;5037475;28;19926;-81
2024/01/16 06:05:19;;;;;;;;;;;;;;;;;;5016700;28;19930;-85
2024/01/16 06:07:45;;;;;;;;;;;;;;;;;;5043288;28;19926;-84
2024/01/16 06:10:12;;;;;;;;;;;;;;;;;;5044704;28;20021;-85
2024/01/16 06:12:38;;;;;;;;;;;;;;;;;;5043287;28;19991;-83
2024/01/16 06:15:04;;;;;;;;;;;;;;;;;;4971604;28;19930;-84
2024/01/16 06:17:32;;;;;;;;;;;;;;;;;;5041526;28;19934;-83
2024/01/16 06:19:58;;;;;;;;;;;;;;;;;;4976245;28;19988;-85
2024/01/16 06:22:24;;;;;;;;;;;;;;;;;;5044279;28;19985;-84
2024/01/16 06:24:51;;;;;;;;;;;;;;;;;;5041583;28;19933;-84
2024/01/16 06:27:19;;;;;;;;;;;;;;;;;;4966192;28;19966;-83
2024/01/16 06:29:45;;;;;;;;;;;;;;;;;;4977097;28;19952;-80
2024/01/16 06:32:12;;;;;;;;;;;;;;;;;;5040807;28;19926;-85
2024/01/16 06:34:38;;;;;;;;;;;;;;;;;;5042361;28;20363;-86
2024/01/16 06:37:04;;;;;;;;;;;;;;;;;;5038229;28;20455;-84
2024/01/16 06:39:31;;;;;;;;;;;;;;;;;;5045888;28;20295;-86
2024/01/16 06:41:57;;;;;;;;;;;;;;;;;;5044564;28;19930;-84
2024/01/16 06:44:23;;;;;;;;;;;;;;;;;;5048719;28;19952;-85
2024/01/16 06:46:50;;;;;;;;;;;;;;;;;;5051348;28;19952;-83
2024/01/16 06:49:16;;;;;;;;;;;;;;;;;;5050291;28;19928;-83
2024/01/16 06:51:43;;;;;;;;;;;;;;;;;;5049565;28;20025;-84
2024/01/16 06:54:09;;;;;;;;;;;;;;;;;;5037109;28;20314;-84
2024/01/16 06:56:36;;;;;;;;;;;;;;;;;;4974100;28;19962;-85
2024/01/16 06:59:02;;;;;;;;;;;;;;;;;;5048431;28;19927;-85
2024/01/16 07:01:29;;;;;;;;;;;;;;;;;;4973971;28;20032;-83
2024/01/16 07:03:55;;;;;;;;;;;;;;;;;;5027102;28;20455;-85
2024/01/16 07:06:22;;;;;;;;;;;;;;;;;;4962688;28;20014;-87
2024/01/16 07:08:48;;;;;;;;;;;;;;;;;;5023574;28;19930;-82
2024/01/16 07:11:15;;;;;;;;;;;;;;;;;;4966978;28;19975;-85
2024/01/16 07:13:41;;;;;;;;;;;;;;;;;;5027266;28;20429;-83
2024/01/16 07:16:08;;;;;;;;;;;;;;;;;;5043384;28;19927;-84
2024/01/16 07:18:34;;;;;;;;;;;;;;;;;;5043501;28;19930;-84
2024/01/16 07:21:02;;;;;;;;;;;;;;;;;;5043692;28;19926;-82
2024/01/16 07:23:29;;;;;;;;;;;;;;;;;;4968732;28;19932;-84
2024/01/16 07:25:55;;;;;;;;;;;;;;;;;;5043969;28;19926;-85
2024/01/16 07:28:22;;;;;;;;;;;;;;;;;;5043681;28;19965;-85
2024/01/16 07:30:49;;;;;;;;;;;;;;;;;;4973181;28;19957;-84
2024/01/16 07:33:15;;;;;;;;;;;;;;;;;;5041038;28;19930;-84
2024/01/16 07:35:43;;;;;;;;;;;;;;;;;;5039985;28;19941;-82
2024/01/16 07:38:10;;;;;;;;;;;;;;;;;;5039576;28;20140;-85
2024/01/16 07:40:36;;;;;;;;;;;;;;;;;;4968410;28;19926;-80
2024/01/16 07:43:03;;;;;;;;;;;;;;;;;;5029423;28;19976;-84
2024/01/16 07:45:29;;;;;;;;;;;;;;;;;;4964870;28;19998;-86
2024/01/16 07:47:55;;;;;;;;;;;;;;;;;;4975354;28;19933;-82
2024/01/16 07:50:22;;;;;;;;;;;;;;;;;;5034187;28;19973;-83
2024/01/16 07:52:48;;;;;;;;;;;;;;;;;;4967312;28;19933;-84
2024/01/16 07:55:15;;;;;;;;;;;;;;;;;;5042113;28;19934;-85
2024/01/16 07:57:41;;;;;;;;;;;;;;;;;;4968862;28;19953;-84
2024/01/16 08:00:11;;;;;;;;;;;;;;;;;;4970352;28;19993;-82
2024/01/16 08:02:38;;;;;;;;;;;;;;;;;;5034864;28;19931;-77
2024/01/16 08:05:04;;;;;;;;;;;;;;;;;;5035928;28;19937;-79
2024/01/16 08:07:31;;;;;;;;;;;;;;;;;;5037272;28;19953;-78
2024/01/16 08:09:57;;;;;;;;;;;;;;;;;;5033195;28;19927;-77
2024/01/16 08:12:24;;;;;;;;;;;;;;;;;;5033485;28;19953;-77
2024/01/16 08:14:50;;;;;;;;;;;;;;;;;;5026230;28;19930;-76
2024/01/16 08:17:17;;;;;;;;;;;;;;;;;;5030375;28;19932;-77
2024/01/16 08:19:44;;;;;;;;;;;;;;;;;;5035388;28;19988;-76
2024/01/16 08:22:10;;;;;;;;;;;;;;;;;;5033582;28;19930;-78
2024/01/16 08:24:37;;;;;;;;;;;;;;;;;;5038050;28;20386;-76
2024/01/16 08:27:03;;;;;;;;;;;;;;;;;;5039020;28;19926;-76
2024/01/16 08:29:30;;;;;;;;;;;;;;;;;;4970151;28;19938;-77
2024/01/16 08:31:56;;;;;;;;;;;;;;;;;;5040531;28;20268;-76
2024/01/16 08:34:23;;;;;;;;;;;;;;;;;;5038110;28;20298;-76
2024/01/16 08:36:49;;;;;;;;;;;;;;;;;;4966214;28;19931;-76
2024/01/16 08:39:16;;;;;;;;;;;;;;;;;;5031243;28;20044;-77
2024/01/16 08:41:45;;;;;;;;;;;;;;;;;;4967245;28;19926;-80
2024/01/16 08:44:12;;;;;;;;;;;;;;;;;;5040558;28;19930;-77
2024/01/16 08:46:38;;;;;;;;;;;;;;;;;;5038559;28;19926;-77
2024/01/16 08:49:04;;;;;;;;;;;;;;;;;;5021401;28;19927;-78
2024/01/16 08:51:31;;;;;;;;;;;;;;;;;;5039503;28;19930;-76
2024/01/16 08:53:57;;;;;;;;;;;;;;;;;;4954651;28;20022;-76
2024/01/16 08:56:23;;;;;;;;;;;;;;;;;;4955055;28;19931;-76
2024/01/16 08:58:50;;;;;;;;;;;;;;;;;;4966648;28;19931;-75
2024/01/16 09:01:16;;;;;;;;;;;;;;;;;;4965423;28;19937;-75
2024/01/16 09:03:43;;;;;;;;;;;;;;;;;;5026483;28;20345;-77
2024/01/16 09:06:10;;;;;;;;;;;;;;;;;;5028245;28;19930;-76
2024/01/16 09:08:37;;;;;;;;;;;;;;;;;;5038338;28;19979;-75
2024/01/16 09:11:03;;;;;;;;;;;;;;;;;;5038106;28;19941;-77
2024/01/16 09:13:30;;;;;;;;;;;;;;;;;;5035801;28;19926;-77
2024/01/16 09:15:56;;;;;;;;;;;;;;;;;;5015113;28;19927;-78
2024/01/16 09:18:23;;;;;;;;;;;;;;;;;;5038145;28;19948;-75
2024/01/16 09:20:49;;;;;;;;;;;;;;;;;;4964363;28;19965;-75
2024/01/16 09:23:16;;;;;;;;;;;;;;;;;;4958272;28;20378;-78
2024/01/16 09:25:42;;;;;;;;;;;;;;;;;;5036671;28;19930;-78
2024/01/16 09:28:12;;;;;;;;;;;;;;;;;;4961993;28;19926;-78
2024/01/16 09:30:38;;;;;;;;;;;;;;;;;;5034542;28;19936;-77
2024/01/16 09:33:06;;;;;;;;;;;;;;;;;;5030848;28;19930;-75
2024/01/16 09:35:33;;;;;;;;;;;;;;;;;;5037646;28;19927;-77
2024/01/16 09:38:00;;;;;;;;;;;;;;;;;;4965050;28;20020;-76
2024/01/16 09:40:26;;;;;;;;;;;;;;;;;;5036519;28;19930;-77
2024/01/16 09:42:52;;;;;;;;;;;;;;;;;;5036986;28;20037;-75
2024/01/16 09:45:19;;;;;;;;;;;;;;;;;;5037155;28;19927;-77
2024/01/16 09:47:45;;;;;;;;;;;;;;;;;;5034421;28;19938;-77
2024/01/16 09:50:12;;;;;;;;;;;;;;;;;;5030208;28;19926;-78
2024/01/16 09:52:38;;;;;;;;;;;;;;;;;;5037088;28;20268;-77
2024/01/16 09:55:04;;;;;;;;;;;;;;;;;;4956277;28;19927;-77
2024/01/16 09:57:31;;;;;;;;;;;;;;;;;;5037957;28;19964;-78
2024/01/16 09:59:57;;;;;;;;;;;;;;;;;;5033603;28;19942;-76
2024/01/16 10:02:24;;;;;;;;;;;;;;;;;;5032382;28;19973;-76
2024/01/16 10:04:51;;;;;;;;;;;;;;;;;;5036799;28;20019;-77
2024/01/16 10:07:18;;;;;;;;;;;;;;;;;;5028493;28;20291;-75
2024/01/16 10:09:44;;;;;;;;;;;;;;;;;;5044442;28;19972;-77
2024/01/16 10:12:10;;;;;;;;;;;;;;;;;;5024433;28;20009;-77
2024/01/16 10:14:38;;;;;;;;;;;;;;;;;;4964270;28;20013;-75
2024/01/16 10:17:38;;;;;;;;;;;;;;;;;;5035064;28;20383;-76
2024/01/16 10:20:02;;;;;;;;;;;;;;;;;;4969162;28;19944;-76
2024/01/16 10:22:28;;;;;;;;;;;;;;;;;;4957321;28;20427;-78
2024/01/16 10:24:55;;;;;;;;;;;;;;;;;;5037969;28;20303;-74
2024/01/16 10:27:21;;;;;;;;;;;;;;;;;;4959315;28;19930;-76
2024/01/16 10:29:47;;;;;;;;;;;;;;;;;;5040692;28;19926;-75
2024/01/16 10:32:16;;;;;;;;;;;;;;;;;;4963372;28;19961;-77
2024/01/16 10:34:43;;;;;;;;;;;;;;;;;;4966121;28;19927;-77
2024/01/16 10:37:09;;;;;;;;;;;;;;;;;;5034856;28;20029;-77
2024/01/16 10:39:37;;;;;;;;;;;;;;;;;;5024724;28;20344;-76
2024/01/16 10:42:08;;;;;;;;;;;;;;;;;;5032479;28;19980;-75
2024/01/16 10:44:37;;;;;;;;;;;;;;;;;;5036128;28;19926;-77
2024/01/16 10:47:04;;;;;;;;;;;;;;;;;;5035361;28;20383;-75
2024/01/16 10:49:30;;;;;;;;;;;;;;;;;;5034378;28;19988;-75
2024/01/16 10:52:06;;;;;;;;;;;;;;;;;;5017183;28;19931;-74
2024/01/16 10:54:32;;;;;;;;;;;;;;;;;;5037125;28;19934;-77
2024/01/16 10:56:58;;;;;;;;;;;;;;;;;;5034894;28;19980;-79
2024/01/16 10:59:25;;;;;;;;;;;;;;;;;;4964038;28;19933;-74
2024/01/16 11:01:52;;;;;;;;;;;;;;;;;;4960380;28;19983;-77
2024/01/16 11:04:18;;;;;;;;;;;;;;;;;;5037062;28;20255;-77
2024/01/16 11:06:45;;;;;;;;;;;;;;;;;;5035715;28;19957;-78
2024/01/16 11:09:12;;;;;;;;;;;;;;;;;;5033306;28;20323;-77
2024/01/16 11:11:38;;;;;;;;;;;;;;;;;;5036416;28;19926;-76
2024/01/16 11:14:06;;;;;;;;;;;;;;;;;;5031723;28;20024;-76
2024/01/16 11:16:32;;;;;;;;;;;;;;;;;;5033379;28;20391;-76
2024/01/16 11:18:59;;;;;;;;;;;;;;;;;;4960337;28;20298;-74
2024/01/16 11:21:43;;;;;;;;;;;;;;;;;;4966460;28;20402;-77
2024/01/16 11:24:09;;;;;;;;;;;;;;;;;;4954325;28;19927;-75
2024/01/16 11:26:36;;;;;;;;;;;;;;;;;;5033175;28;19980;-74
2024/01/16 11:29:04;;;;;;;;;;;;;;;;;;5031768;28;19989;-76
2024/01/16 11:31:31;;;;;;;;;;;;;;;;;;5028580;28;20013;-77
2024/01/16 11:33:59;;;;;;;;;;;;;;;;;;5023767;28;19973;-76
2024/01/16 11:36:26;;;;;;;;;;;;;;;;;;4961559;28;19926;-75
2024/01/16 11:38:52;;;;;;;;;;;;;;;;;;5037088;28;19965;-76
2024/01/16 11:41:18;;;;;;;;;;;;;;;;;;5030510;28;19930;-78
2024/01/16 11:43:52;;;;;;;;;;;;;;;;;;5041806;28;19930;-75
2024/01/16 11:46:18;;;;;;;;;;;;;;;;;;5034444;28;19926;-76
2024/01/16 11:48:45;;;;;;;;;;;;;;;;;;5019487;28;19937;-78
2024/01/16 11:51:11;;;;;;;;;;;;;;;;;;4959041;28;20305;-76
2024/01/16 11:53:39;;;;;;;;;;;;;;;;;;5034029;28;19927;-78
2024/01/16 11:56:06;;;;;;;;;;;;;;;;;;5025600;28;19952;-77
2024/01/16 11:58:32;;;;;;;;;;;;;;;;;;5026978;28;20015;-78
2024/01/16 12:00:59;;;;;;;;;;;;;;;;;;5026759;28;19930;-76
2024/01/16 12:03:25;;;;;;;;;;;;;;;;;;5026451;28;19934;-76
2024/01/16 12:05:55;;;;;;;;;;;;;;;;;;4959481;28;19926;-73
2024/01/16 12:08:21;;;;;;;;;;;;;;;;;;5036453;28;19976;-73
2024/01/16 12:10:48;;;;;;;;;;;;;;;;;;5033695;28;19930;-75
2024/01/16 12:13:14;;;;;;;;;;;;;;;;;;5036552;28;20330;-75
2024/01/16 12:15:42;;;;;;;;;;;;;;;;;;5019171;28;19926;-77
2024/01/16 12:18:08;;;;;;;;;;;;;;;;;;5037261;28;19941;-75
2024/01/16 12:20:44;;;;;;;;;;;;;;;;;;5028901;28;19927;-75
2024/01/16 12:23:11;;;;;;;;;;;;;;;;;;4955823;28;19930;-77
2024/01/16 12:25:38;;;;;;;;;;;;;;;;;;5032632;28;19930;-75
2024/01/16 12:28:24;;;;;;;;;;;;;;;;;;5014762;28;19933;-77
2024/01/16 12:30:57;;;;;;;;;;;;;;;;;;4965105;28;20334;-77
2024/01/16 12:33:24;;;;;;;;;;;;;;;;;;4962504;28;19934;-76
2024/01/16 12:35:53;;;;;;;;;;;;;;;;;;5035958;28;19926;-76
2024/01/16 12:38:23;;;;;;;;;;;;;;;;;;4960556;28;20414;-76
2024/01/16 12:40:50;;;;;;;;;;;;;;;;;;5033767;28;19937;-76
2024/01/16 12:43:17;;;;;;;;;;;;;;;;;;5031780;28;20414;-75
2024/01/16 12:45:44;;;;;;;;;;;;;;;;;;5017580;28;19933;-77
2024/01/16 12:48:11;;;;;;;;;;;;;;;;;;5024867;28;19939;-77
2024/01/16 12:50:37;;;;;;;;;;;;;;;;;;4959173;28;19968;-76
2024/01/16 12:53:04;;;;;;;;;;;;;;;;;;5024111;28;19933;-76
2024/01/16 12:55:32;;;;;;;;;;;;;;;;;;5033788;28;19927;-76
2024/01/16 12:57:58;;;;;;;;;;;;;;;;;;4954712;28;20383;-77
2024/01/16 13:00:25;;;;;;;;;;;;;;;;;;4962872;28;19949;-76
2024/01/16 13:02:52;;;;;;;;;;;;;;;;;;4959790;28;19934;-75
2024/01/16 13:05:18;;;;;;;;;;;;;;;;;;5033067;28;20025;-76
2024/01/16 13:07:46;;;;;;;;;;;;;;;;;;5024647;28;20000;-76
2024/01/16 13:10:15;;;;;;;;;;;;;;;;;;4962539;28;19933;-76
2024/01/16 13:12:42;;;;;;;;;;;;;;;;;;5034353;28;19950;-76
2024/01/16 13:15:10;;;;;;;;;;;;;;;;;;5027598;28;19927;-76
2024/01/16 13:17:37;;;;;;;;;;;;;;;;;;4957883;28;19938;-75
2024/01/16 13:20:07;;;;;;;;;;;;;;;;;;5035652;28;19926;-76
2024/01/16 13:22:33;;;;;;;;;;;;;;;;;;5010660;28;19933;-76
2024/01/16 13:25:08;;;;;;;;;;;;;;;;;;5025536;28;20331;-74
2024/01/16 13:27:35;;;;;;;;;;;;;;;;;;5036984;28;20398;-74
2024/01/16 13:30:01;;;;;;;;;;;;;;;;;;5025858;28;19934;-75
2024/01/16 13:32:28;;;;;;;;;;;;;;;;;;5040708;28;20397;-75
2024/01/16 13:34:54;;;;;;;;;;;;;;;;;;5020533;28;20656;-75
2024/01/16 13:37:21;;;;;;;;;;;;;;;;;;5037575;28;19984;-76
2024/01/16 13:39:48;;;;;;;;;;;;;;;;;;5037056;28;20381;-75
2024/01/16 13:42:18;;;;;;;;;;;;;;;;;;5037003;28;19930;-80
2024/01/16 13:44:45;;;;;;;;;;;;;;;;;;5038714;28;20012;-77
2024/01/16 13:47:12;;;;;;;;;;;;;;;;;;5027676;28;20018;-77
2024/01/16 13:49:41;;;;;;;;;;;;;;;;;;4962751;28;19934;-75
2024/01/16 13:52:08;;;;;;;;;;;;;;;;;;4958680;28;19931;-76
2024/01/16 13:54:34;;;;;;;;;;;;;;;;;;4963200;28;19933;-77
2024/01/16 13:57:00;;;;;;;;;;;;;;;;;;4957096;28;19930;-75
2024/01/16 13:59:32;;;;;;;;;;;;;;;;;;4963503;28;20379;-78
2024/01/16 14:01:58;;;;;;;;;;;;;;;;;;4956382;28;19934;-76
2024/01/16 14:04:25;;;;;;;;;;;;;;;;;;5036631;28;19983;-78
2024/01/16 14:06:51;;;;;;;;;;;;;;;;;;5035436;28;19965;-74
2024/01/16 14:09:34;;;;;;;;;;;;;;;;;;5040556;28;20025;-78
2024/01/16 14:12:01;;;;;;;;;;;;;;;;;;4958215;28;19937;-75
2024/01/16 14:14:27;;;;;;;;;;;;;;;;;;4964063;28;20007;-76
2024/01/16 14:16:56;;;;;;;;;;;;;;;;;;5035922;28;19926;-78
2024/01/16 14:19:27;;;;;;;;;;;;;;;;;;5034076;28;19926;-75
2024/01/16 14:21:54;;;;;;;;;;;;;;;;;;5029681;28;19980;-75
2024/01/16 14:24:21;;;;;;;;;;;;;;;;;;5021498;28;20034;-75
2024/01/16 14:26:47;;;;;;;;;;;;;;;;;;5037988;28;19938;-76
2024/01/16 14:29:15;;;;;;;;;;;;;;;;;;5036059;28;20382;-76
2024/01/16 14:31:42;;;;;;;;;;;;;;;;;;4961785;28;19926;-74
2024/01/16 14:34:09;;;;;;;;;;;;;;;;;;5036249;28;19931;-75
2024/01/16 14:36:36;;;;;;;;;;;;;;;;;;5035933;28;20025;-75
2024/01/16 14:39:02;;;;;;;;;;;;;;;;;;4965061;28;19926;-74
2024/01/16 14:41:28;;;;;;;;;;;;;;;;;;4963384;28;20302;-76
2024/01/16 14:43:55;;;;;;;;;;;;;;;;;;4963326;28;20302;-75
2024/01/16 14:46:22;;;;;;;;;;;;;;;;;;5038221;28;19931;-76
2024/01/16 14:48:50;;;;;;;;;;;;;;;;;;4967716;28;19930;-76
2024/01/16 14:51:16;;;;;;;;;;;;;;;;;;5032103;28;20307;-77
2024/01/16 14:53:43;;;;;;;;;;;;;;;;;;5026970;28;19926;-76
2024/01/16 14:56:09;;;;;;;;;;;;;;;;;;5038404;28;19930;-75
2024/01/16 14:58:36;;;;;;;;;;;;;;;;;;5033786;28;19963;-76
2024/01/16 15:01:03;;;;;;;;;;;;;;;;;;5034674;28;20013;-76
2024/01/16 15:03:30;;;;;;;;;;;;;;;;;;5025081;28;19930;-75
2024/01/16 15:05:56;;;;;;;;;;;;;;;;;;5027520;28;19980;-74
2024/01/16 15:08:23;;;;;;;;;;;;;;;;;;5028505;28;20017;-76
2024/01/16 15:10:49;;;;;;;;;;;;;;;;;;5031390;28;19926;-76
2024/01/16 15:13:16;;;;;;;;;;;;;;;;;;5035212;28;20009;-76
2024/01/16 15:15:43;;;;;;;;;;;;;;;;;;5034846;28;19933;-75
2024/01/16 15:18:09;;;;;;;;;;;;;;;;;;5037065;28;19972;-77
2024/01/16 15:20:36;;;;;;;;;;;;;;;;;;5036990;28;19972;-75
2024/01/16 15:23:03;;;;;;;;;;;;;;;;;;5036290;28;19929;-75
2024/01/16 15:25:29;;;;;;;;;;;;;;;;;;5036292;28;19927;-76
2024/01/16 15:27:57;;;;;;;;;;;;;;;;;;5022266;28;21979;-76
2024/01/16 15:30:31;;;;;;;;;;;;;;;;;;4969819;28;19933;-77
2024/01/16 15:33:00;;;;;;;;;;;;;;;;;;5043289;28;19931;-77
2024/01/16 15:35:27;;;;;;;;;;;;;;;;;;5039506;28;20021;-78
2024/01/16 15:37:54;;;;;;;;;;;;;;;;;;4963196;28;19942;-77
2024/01/16 15:40:20;;;;;;;;;;;;;;;;;;5035132;28;19933;-79
2024/01/16 15:42:47;;;;;;;;;;;;;;;;;;5019104;28;19965;-75
2024/01/16 15:45:14;;;;;;;;;;;;;;;;;;4955154;28;19937;-76
2024/01/16 15:47:41;;;;;;;;;;;;;;;;;;5035934;28;20428;-76
2024/01/16 15:50:07;;;;;;;;;;;;;;;;;;5038431;28;19953;-75
2024/01/16 15:52:34;;;;;;;;;;;;;;;;;;5035246;28;19926;-75
2024/01/16 15:55:01;;;;;;;;;;;;;;;;;;4959106;28;19933;-75
2024/01/16 15:57:28;;;;;;;;;;;;;;;;;;5034768;28;19926;-77
2024/01/16 15:59:54;;;;;;;;;;;;;;;;;;4961049;28;19933;-76
2024/01/16 16:02:21;;;;;;;;;;;;;;;;;;4951621;28;20343;-76
2024/01/16 16:04:47;;;;;;;;;;;;;;;;;;5028692;28;19989;-75
2024/01/16 16:07:13;;;;;;;;;;;;;;;;;;5027778;28;20005;-74
2024/01/16 16:09:40;;;;;;;;;;;;;;;;;;4960964;28;20342;-76
2024/01/16 16:12:06;;;;;;;;;;;;;;;;;;5035597;28;19954;-76
2024/01/16 16:14:34;;;;;;;;;;;;;;;;;;5034292;28;19974;-75
2024/01/16 16:17:04;;;;;;;;;;;;;;;;;;5034871;28;19931;-74
2024/01/16 16:19:31;;;;;;;;;;;;;;;;;;4962364;28;20301;-77
2024/01/16 16:21:57;;;;;;;;;;;;;;;;;;5035946;28;19949;-76
2024/01/16 16:24:24;;;;;;;;;;;;;;;;;;5033704;28;19980;-76
2024/01/16 16:26:53;;;;;;;;;;;;;;;;;;4958236;28;19930;-78
2024/01/16 16:29:20;;;;;;;;;;;;;;;;;;5035917;28;19980;-75
2024/01/16 16:31:46;;;;;;;;;;;;;;;;;;4956582;28;19934;-74
2024/01/16 16:34:17;;;;;;;;;;;;;;;;;;5035560;28;19930;-75
2024/01/16 16:36:44;;;;;;;;;;;;;;;;;;5034063;28;19926;-76
2024/01/16 16:39:12;;;;;;;;;;;;;;;;;;5021270;28;19933;-76
2024/01/16 16:41:39;;;;;;;;;;;;;;;;;;5025917;28;20488;-76
2024/01/16 16:44:06;;;;;;;;;;;;;;;;;;5027407;28;19930;-74